AUR6RC EGJB-EGJJ

Flight info

Callsign AUR6RC
Flight time 0h 10m
Altitude 7000
Route JSY/N0272F060
Aircraft AT76/M-SDFGIRY/S

Departure

Time 2026-04-26 13:26
Airport Guernsey Airport (EGJB)

Arrival

Time 2026-04-26 13:36
Airport Jersey Airport (EGJJ)
Time Latitude Longitude Altitude Speed Heading
2026-04-26 13:17 49.43292 -2.59852 320 ft 0 kts 89°
2026-04-26 13:22 49.43257 -2.59828 321 ft 5 kts 185°
2026-04-26 13:22 49.43267 -2.59923 319 ft 14 kts 330°
2026-04-26 13:22 49.43325 -2.59935 319 ft 11 kts 349°
2026-04-26 13:23 49.43338 -2.60023 318 ft 13 kts 266°
2026-04-26 13:23 49.43331 -2.60189 316 ft 18 kts 267°
2026-04-26 13:23 49.43328 -2.60393 313 ft 21 kts 270°
2026-04-26 13:23 49.43330 -2.60623 310 ft 22 kts 277°
2026-04-26 13:24 49.43356 -2.60864 308 ft 23 kts 281°
2026-04-26 13:24 49.43361 -2.61085 304 ft 21 kts 267°
2026-04-26 13:24 49.43374 -2.61277 302 ft 15 kts 305°
2026-04-26 13:24 49.43440 -2.61351 300 ft 5 kts
2026-04-26 13:25 49.43465 -2.61296 302 ft 8 kts 71°
2026-04-26 13:25 49.43470 -2.61198 305 ft 11 kts 87°
2026-04-26 13:25 49.43481 -2.60775 309 ft 73 kts 88°
2026-04-26 13:25 49.43514 -2.59683 341 ft 127 kts 87°
2026-04-26 13:26 49.43563 -2.58252 778 ft 142 kts 87°
2026-04-26 13:26 49.43512 -2.56622 1047 ft 170 kts 105°
2026-04-26 13:26 49.42930 -2.54879 1314 ft 198 kts 128°
2026-04-26 13:26 49.41962 -2.53233 1599 ft 216 kts 133°
2026-04-26 13:27 49.40931 -2.51446 1856 ft 230 kts 129°
2026-04-26 13:27 49.39973 -2.49405 2075 ft 241 kts 123°
2026-04-26 13:27 49.39138 -2.47132 2153 ft 246 kts 117°
2026-04-26 13:27 49.38385 -2.44741 2195 ft 249 kts 115°
2026-04-26 13:28 49.37658 -2.42346 2222 ft 252 kts 115°
2026-04-26 13:28 49.36907 -2.39902 2232 ft 254 kts 116°
2026-04-26 13:28 49.36129 -2.37479 2236 ft 251 kts 117°
2026-04-26 13:28 49.35348 -2.35095 2237 ft 249 kts 117°
2026-04-26 13:29 49.34573 -2.32722 2236 ft 249 kts 117°
2026-04-26 13:29 49.34059 -2.31153 2239 ft 248 kts 117°
2026-04-26 13:29 49.33019 -2.27981 2239 ft 248 kts 117°
2026-04-26 13:29 49.32244 -2.25612 2233 ft 248 kts 117°
2026-04-26 13:30 49.31467 -2.23252 2240 ft 248 kts 117°
2026-04-26 13:30 49.30703 -2.20920 2247 ft 248 kts 117°
2026-04-26 13:30 49.29928 -2.18559 2249 ft 248 kts 117°
2026-04-26 13:30 49.29154 -2.16203 2236 ft 248 kts 117°
2026-04-26 13:31 49.28378 -2.13848 2245 ft 247 kts 117°
2026-04-26 13:31 49.27603 -2.11523 2246 ft 241 kts 117°
2026-04-26 13:31 49.26856 -2.09289 2238 ft 228 kts 117°
2026-04-26 13:31 49.26154 -2.07192 2240 ft 215 kts 117°
2026-04-26 13:32 49.25483 -2.05178 2238 ft 210 kts 117°
2026-04-26 13:32 49.24829 -2.03198 2238 ft 208 kts 117°
2026-04-26 13:32 49.24184 -2.01251 2239 ft 207 kts 117°
2026-04-26 13:32 49.23331 -1.99502 2241 ft 204 kts 144°
2026-04-26 13:33 49.21999 -1.98940 2242 ft 206 kts 184°
2026-04-26 13:33 49.20736 -1.99865 2237 ft 205 kts 225°
2026-04-26 13:33 49.20187 -2.01803 2244 ft 196 kts 266°
2026-04-26 13:33 49.20472 -2.03596 2240 ft 162 kts 294°
2026-04-26 13:34 49.20967 -2.05110 2015 ft 152 kts 297°
2026-04-26 13:34 49.21331 -2.06524 1843 ft 136 kts 285°
2026-04-26 13:34 49.21514 -2.07908 1654 ft 132 kts 277°
2026-04-26 13:34 49.21565 -2.08817 1544 ft 129 kts 272°
2026-04-26 13:35 49.21556 -2.10657 1314 ft 130 kts 265°
2026-04-26 13:35 49.21474 -2.12024 1152 ft 129 kts 262°
2026-04-26 13:35 49.21344 -2.13392 942 ft 131 kts 262°
2026-04-26 13:35 49.21203 -2.14744 759 ft 130 kts 262°
2026-04-26 13:36 49.21082 -2.16101 622 ft 127 kts 264°
2026-04-26 13:36 49.20972 -2.17455 457 ft 128 kts 264°
2026-04-26 13:36 49.20861 -2.18789 295 ft 122 kts 263°
2026-04-26 13:36 49.20778 -2.19795 278 ft 46 kts 262°
2026-04-26 13:37 49.20721 -2.20091 276 ft 23 kts 209°
2026-04-26 13:37 49.20590 -2.20087 277 ft 15 kts 175°
2026-04-26 13:37 49.20520 -2.20011 277 ft 19 kts 101°
2026-04-26 13:37 49.20480 -2.19919 277 ft 12 kts 174°
2026-04-26 13:38 49.20440 -2.19844 277 ft 9 kts 53°
2026-04-26 13:38 49.20476 -2.19841 277 ft 0 kts 349°